Accueil
METAR-TAF:

METAR-TAF

Aéroports :

El Paso, Texas, États-Unis

latitude: 31-48-40N, longitude: 106-22-33W, altitude: 1206 m

Observation

Le bulletin a été fait il y a 1 heure et 8 minutes, à 06:51 UTC
Vent 3 kt de est/sud-est
Température 4°C
Humidité 48%
Pression 1027 hPa
Visibilité: 16.1 km
Ciel clair

METAR: KELP 020651Z 12003KT 10SM CLR 04/M06 A3033 RMK AO2 SLP249 T00441056 401330022

Heure: 01:59 (07:59 UTC)

Prévision

Le bulletin a été fait il y a 2 heures et 36 minutes, à 05:23 UTC
Prévision valable du 02 à 06 UTC au 03 à 06 UTC
Vent 5 kt de est
Visibilité: 10 km
Ciel clair

TAF: KELP 020523Z 0206/0306 08005KT P6SM SKC

Observations et prévisions météorologiques de plus de 4000 aéroports (messages METAR et TAF).

Les stations disponibles sont représentées par des disques jaunes et rouges sur la carte.

Passer la souris dessus pour voir le nom de la station.

Cliquer dessus pour voir les observations et prévisions météorologiques.

Pour changer de carte: cliquez sur les boutons verts avec une croix noire pour zoomer, sur le bouton vert avec un tiret pour effectuer un zoom arrière, ou sur les flèches vertes pour les cartes adjacentes.


METAR-TAF: